createdAt,value
2023-06-30T00:01:01.987Z,100168.31
2023-06-30T00:04:05.081Z,100167.75
2023-06-30T00:07:07.705Z,100166.34
2023-06-30T00:10:11.048Z,100169.03
2023-06-30T00:13:13.692Z,100164.09
2023-06-30T00:16:16.663Z,100162.25
2023-06-30T00:19:20.166Z,100159.78
2023-06-30T00:22:23.071Z,100161.25
2023-06-30T00:25:25.584Z,100161.28
2023-06-30T00:28:28.628Z,100160.88
2023-06-30T00:31:31.226Z,100154.72
2023-06-30T00:34:34.094Z,100154.31
2023-06-30T00:37:36.592Z,100158.47
2023-06-30T00:40:39.786Z,100159.09
2023-06-30T00:43:43.033Z,100156.81
2023-06-30T00:46:45.928Z,100150.25
2023-06-30T00:49:48.582Z,100159.94
2023-06-30T00:52:51.846Z,100145.72
2023-06-30T00:55:54.492Z,100152.31
2023-06-30T00:58:58.436Z,100152.97
2023-06-30T01:02:08.153Z,100150.69
2023-06-30T01:05:40.026Z,100147.41
2023-06-30T01:09:05.158Z,100148.44
2023-06-30T01:12:08.585Z,100143.06
2023-06-30T01:15:13.547Z,100145.97
2023-06-30T01:18:20.952Z,100136.69
2023-06-30T01:21:24.098Z,100138.78
2023-06-30T01:24:34.995Z,100141.44
2023-06-30T01:27:40.686Z,100139.81
2023-06-30T01:30:45.013Z,100143.91
2023-06-30T01:33:48.193Z,100146.81
2023-06-30T01:36:51.228Z,100139.59
2023-06-30T01:39:53.697Z,100136.31
2023-06-30T01:42:57.981Z,100136.31
2023-06-30T01:46:00.967Z,100132.59
2023-06-30T01:49:04.319Z,100132.22
2023-06-30T01:52:07.259Z,100127.28
2023-06-30T01:55:10.484Z,100127.66
2023-06-30T01:58:12.980Z,100130.94
2023-06-30T02:01:16.140Z,100125.00
2023-06-30T02:04:19.040Z,100124.34
2023-06-30T02:07:24.524Z,100135.06
2023-06-30T02:10:27.460Z,100133.62
2023-06-30T02:13:30.577Z,100128.47
2023-06-30T02:16:33.566Z,100133.19
2023-06-30T02:19:36.075Z,100128.66
2023-06-30T02:22:39.945Z,100124.56
2023-06-30T02:25:42.780Z,100131.56
2023-06-30T02:28:45.900Z,100125.56
2023-06-30T02:31:48.726Z,100133.81
2023-06-30T02:34:51.779Z,100126.81
2023-06-30T02:37:54.299Z,100117.56
2023-06-30T02:40:59.061Z,100121.47
2023-06-30T02:44:01.517Z,100119.41
2023-06-30T02:47:04.987Z,100116.94
2023-06-30T02:50:09.795Z,100120.62
2023-06-30T02:53:13.099Z,100119.19
2023-06-30T02:56:15.650Z,100122.28
2023-06-30T02:59:18.924Z,100122.69
2023-06-30T03:02:21.755Z,100114.87
2023-06-30T03:05:25.056Z,100118.37
2023-06-30T03:08:27.714Z,100118.97
2023-06-30T03:11:30.630Z,100114.66
2023-06-30T03:14:33.185Z,100125.56
2023-06-30T03:17:37.847Z,100119.19
2023-06-30T03:20:40.497Z,100124.13
2023-06-30T03:23:43.402Z,100117.56
2023-06-30T03:26:46.854Z,100114.87
2023-06-30T03:29:49.875Z,100127.44
2023-06-30T03:32:52.554Z,100121.69
2023-06-30T03:35:55.350Z,100119.22
2023-06-30T03:38:57.945Z,100121.69
2023-06-30T03:42:00.723Z,100124.97
2023-06-30T03:45:03.440Z,100120.28
2023-06-30T03:48:07.335Z,100117.41
2023-06-30T03:51:10.376Z,100115.50
2023-06-30T03:54:13.216Z,100115.66
2023-06-30T03:57:15.792Z,100103.31
2023-06-30T04:00:19.036Z,100114.38
2023-06-30T04:03:24.288Z,100114.38
2023-06-30T04:06:28.353Z,100122.84
2023-06-30T04:09:31.272Z,100121.56
2023-06-30T04:12:33.838Z,100124.38
2023-06-30T04:15:36.965Z,100122.31
2023-06-30T04:18:39.613Z,100120.25
2023-06-30T04:21:42.569Z,100116.94
2023-06-30T04:24:45.020Z,100120.97
2023-06-30T04:27:47.890Z,100119.31
2023-06-30T04:30:50.376Z,100121.72
2023-06-30T04:33:53.158Z,100117.09
2023-06-30T04:36:55.714Z,100133.13
2023-06-30T04:39:59.391Z,100121.59
2023-06-30T04:43:02.051Z,100117.63
2023-06-30T04:46:05.210Z,100115.31
2023-06-30T04:49:07.888Z,100120.62
2023-06-30T04:52:10.880Z,100104.19
2023-06-30T04:55:16.049Z,100104.25
2023-06-30T04:58:19.492Z,100100.63
2023-06-30T05:01:22.031Z,100099.03
2023-06-30T05:04:24.972Z,100097.47
2023-06-30T05:07:27.735Z,100096.88
2023-06-30T05:10:30.630Z,100099.00
2023-06-30T05:13:33.304Z,100101.00
2023-06-30T05:16:36.338Z,100096.62
2023-06-30T05:19:39.088Z,100095.84
2023-06-30T05:22:41.996Z,100093.19
2023-06-30T05:25:44.777Z,100099.34
2023-06-30T05:29:00.100Z,100096.28
2023-06-30T05:32:08.633Z,100100.34
2023-06-30T05:35:11.542Z,100097.31
2023-06-30T05:38:14.076Z,100100.31
2023-06-30T05:41:16.889Z,100099.62
2023-06-30T05:44:19.424Z,100106.06
2023-06-30T05:47:22.343Z,100101.59
2023-06-30T05:50:25.135Z,100101.00
2023-06-30T05:53:27.993Z,100103.22
2023-06-30T05:56:31.093Z,100113.16
2023-06-30T05:59:35.059Z,100109.53
2023-06-30T06:02:38.236Z,100107.63
2023-06-30T06:05:41.288Z,100107.94
2023-06-30T06:08:45.697Z,100111.97
2023-06-30T06:11:48.640Z,100112.78
2023-06-30T06:14:51.401Z,100111.06
2023-06-30T06:17:54.528Z,100112.78
2023-06-30T06:20:57.919Z,100111.78
2023-06-30T06:24:00.842Z,100111.63
2023-06-30T06:27:03.472Z,100112.28
2023-06-30T06:30:06.886Z,100107.09
2023-06-30T06:33:09.549Z,100109.78
2023-06-30T06:36:12.403Z,100105.34
2023-06-30T06:39:15.578Z,100109.97
2023-06-30T06:42:18.474Z,100097.69
2023-06-30T06:45:24.519Z,100097.69
2023-06-30T06:48:29.330Z,100093.38
2023-06-30T06:51:32.035Z,100086.03
2023-06-30T06:54:34.878Z,100087.09
2023-06-30T06:57:37.527Z,100092.91
2023-06-30T07:00:40.469Z,100086.69
2023-06-30T07:03:42.990Z,100085.19
2023-06-30T07:06:45.848Z,100085.88
2023-06-30T07:09:48.335Z,100087.41
2023-06-30T07:12:53.322Z,100090.06
2023-06-30T07:15:55.919Z,100089.56
2023-06-30T07:18:58.848Z,100091.75
2023-06-30T07:22:01.479Z,100096.72
2023-06-30T07:25:07.549Z,100094.16
2023-06-30T07:28:10.285Z,100089.38
2023-06-30T07:31:13.422Z,100088.81
2023-06-30T07:34:19.409Z,100080.47
2023-06-30T07:37:22.317Z,100089.47
2023-06-30T07:40:25.043Z,100083.78
2023-06-30T07:43:28.574Z,100084.31
2023-06-30T07:46:32.417Z,100082.16
2023-06-30T07:49:35.423Z,100074.78
2023-06-30T07:55:51.994Z,100079.28
2023-06-30T07:58:54.616Z,100072.56
2023-06-30T08:01:57.625Z,100073.09
2023-06-30T08:05:00.635Z,100072.09
2023-06-30T08:08:04.091Z,100061.50
2023-06-30T08:11:07.613Z,100065.47
2023-06-30T08:14:10.125Z,100068.66
2023-06-30T08:17:12.896Z,100052.94
2023-06-30T08:20:24.824Z,100061.16
2023-06-30T08:23:28.107Z,100054.78
2023-06-30T08:26:30.705Z,100048.34
2023-06-30T08:29:33.548Z,100056.09
2023-06-30T08:32:36.063Z,100048.69
2023-06-30T08:35:38.936Z,100055.81
2023-06-30T08:38:41.683Z,100051.47
2023-06-30T08:41:46.643Z,100052.34
2023-06-30T08:44:53.703Z,100051.94
2023-06-30T08:48:08.226Z,100057.56
2023-06-30T08:51:11.847Z,100048.31
2023-06-30T08:54:14.860Z,100049.59
2023-06-30T08:57:18.739Z,100046.28
2023-06-30T09:00:21.829Z,100040.75
2023-06-30T09:03:24.917Z,100042.00
2023-06-30T09:06:28.280Z,100048.41
2023-06-30T09:09:38.930Z,100039.25
2023-06-30T09:12:47.694Z,100034.59
2023-06-30T09:15:51.380Z,100048.97
2023-06-30T09:18:54.449Z,100040.84
2023-06-30T09:21:58.157Z,100038.44
2023-06-30T09:25:01.123Z,100034.34
2023-06-30T09:28:09.872Z,100029.03
2023-06-30T09:31:13.658Z,100028.28
2023-06-30T09:34:16.263Z,100031.25
2023-06-30T09:37:19.177Z,100023.31
2023-06-30T09:40:26.072Z,100018.72
2023-06-30T09:43:29.288Z,100008.03
2023-06-30T09:46:32.225Z,100003.75
2023-06-30T09:49:35.322Z,99995.88
2023-06-30T09:52:38.778Z,100000.31
2023-06-30T09:55:50.606Z,100004.44
2023-06-30T09:59:00.938Z,100001.47
2023-06-30T10:02:04.225Z,99995.81
2023-06-30T10:05:08.491Z,99999.41
2023-06-30T10:08:13.671Z,100003.31
2023-06-30T10:11:16.998Z,100005.09
2023-06-30T10:14:29.369Z,100003.03
2023-06-30T10:17:33.563Z,100004.62
2023-06-30T10:20:47.236Z,100001.06
2023-06-30T10:23:53.215Z,100004.38
2023-06-30T10:26:56.530Z,99994.69
2023-06-30T10:29:59.480Z,100001.03
2023-06-30T10:33:02.230Z,99988.44
2023-06-30T10:36:08.975Z,99987.28
2023-06-30T10:39:12.270Z,99982.41
2023-06-30T10:42:17.019Z,99986.34
2023-06-30T10:45:21.382Z,99989.91
2023-06-30T10:48:28.604Z,99993.94
2023-06-30T10:51:38.017Z,99991.31
2023-06-30T10:54:47.638Z,99987.88
2023-06-30T10:57:54.752Z,99976.91
2023-06-30T11:01:07.323Z,99980.22
2023-06-30T11:04:09.848Z,99972.13
2023-06-30T11:07:29.396Z,99975.78
2023-06-30T11:10:37.502Z,99966.81
2023-06-30T11:13:41.354Z,99961.38
2023-06-30T11:17:05.162Z,99959.62
2023-06-30T11:20:07.962Z,99954.41
2023-06-30T11:23:19.067Z,99953.13
2023-06-30T11:26:21.975Z,99943.75
2023-06-30T11:29:24.777Z,99943.44
2023-06-30T11:32:29.362Z,99942.28
2023-06-30T11:35:33.809Z,99932.03
2023-06-30T11:38:41.974Z,99933.34
2023-06-30T11:41:45.071Z,99928.81
2023-06-30T11:44:51.867Z,99928.09
2023-06-30T11:47:57.154Z,99927.72
2023-06-30T11:51:03.602Z,99908.84
2023-06-30T11:54:07.834Z,99908.59
2023-06-30T11:57:11.024Z,99909.37
2023-06-30T12:00:26.376Z,99912.03
2023-06-30T12:03:31.252Z,99905.44
2023-06-30T12:06:37.156Z,99899.88
2023-06-30T12:09:44.562Z,99894.81
2023-06-30T12:13:00.042Z,99889.63
2023-06-30T12:16:04.448Z,99899.09
2023-06-30T12:19:09.462Z,99884.91
2023-06-30T12:22:13.964Z,99881.94
2023-06-30T12:25:17.378Z,99877.03
2023-06-30T12:28:20.014Z,99875.88
2023-06-30T12:31:32.700Z,99869.06
2023-06-30T12:34:36.971Z,99867.81
2023-06-30T12:37:40.619Z,99875.94
2023-06-30T12:40:43.233Z,99871.06
2023-06-30T12:43:46.344Z,99860.62
2023-06-30T12:47:09.335Z,99855.97
2023-06-30T12:50:14.429Z,99852.44
2023-06-30T12:53:17.009Z,99853.84
2023-06-30T12:56:19.824Z,99851.28
2023-06-30T12:59:22.452Z,99839.09
2023-06-30T13:02:25.708Z,99845.59
2023-06-30T13:05:28.329Z,99847.06
2023-06-30T13:08:31.494Z,99853.41
2023-06-30T13:11:34.748Z,99839.72
2023-06-30T13:14:37.760Z,99832.56
2023-06-30T13:17:40.681Z,99833.44
2023-06-30T13:20:43.682Z,99826.16
2023-06-30T13:23:46.604Z,99819.34
2023-06-30T13:26:49.557Z,99818.87
2023-06-30T13:29:52.810Z,99810.75
2023-06-30T13:32:57.233Z,99813.13
2023-06-30T13:36:00.789Z,99805.50
2023-06-30T13:39:04.470Z,99801.63
2023-06-30T13:42:08.221Z,99799.28
2023-06-30T13:45:14.677Z,99798.06
2023-06-30T13:48:17.485Z,99792.22
2023-06-30T13:51:22.242Z,99793.56
2023-06-30T13:54:25.285Z,99776.31
2023-06-30T13:57:28.346Z,99768.53
2023-06-30T14:00:30.973Z,99759.59
2023-06-30T14:03:34.559Z,99761.16
2023-06-30T14:06:37.294Z,99757.97
2023-06-30T14:09:42.633Z,99757.81
2023-06-30T14:12:45.594Z,99744.84
2023-06-30T14:15:48.679Z,99745.84
2023-06-30T14:18:51.551Z,99735.66
2023-06-30T14:21:54.641Z,99730.31
2023-06-30T14:24:57.365Z,99729.03
2023-06-30T14:28:00.251Z,99721.94
2023-06-30T14:31:02.943Z,99708.41
2023-06-30T14:34:06.077Z,99719.00
2023-06-30T14:37:12.144Z,99713.63
2023-06-30T14:40:15.132Z,99702.94
2023-06-30T14:43:17.830Z,99697.47
2023-06-30T14:46:20.883Z,99687.31
2023-06-30T14:49:23.657Z,99692.75
2023-06-30T14:52:26.468Z,99689.28
2023-06-30T14:55:29.040Z,99678.41
2023-06-30T14:58:31.910Z,99672.41
2023-06-30T15:01:34.617Z,99675.34
2023-06-30T15:04:37.719Z,99671.34
2023-06-30T15:07:40.326Z,99665.19
2023-06-30T15:10:43.273Z,99655.69
2023-06-30T15:13:45.883Z,99659.81
2023-06-30T15:16:49.488Z,99660.41
2023-06-30T15:19:52.672Z,99661.69
2023-06-30T15:22:55.911Z,99659.34
2023-06-30T15:25:58.586Z,99651.56
2023-06-30T15:29:01.560Z,99644.88
2023-06-30T15:32:19.928Z,99642.97
2023-06-30T15:35:25.677Z,99638.47
2023-06-30T15:38:28.352Z,99633.53
2023-06-30T15:41:31.244Z,99635.78
2023-06-30T15:44:33.957Z,99630.00
2023-06-30T15:47:36.982Z,99626.38
2023-06-30T15:50:41.498Z,99623.38
2023-06-30T15:53:44.394Z,99625.09
2023-06-30T15:56:47.109Z,99619.66
2023-06-30T15:59:49.903Z,99626.66
2023-06-30T16:02:54.015Z,99612.19
2023-06-30T16:05:57.165Z,99626.91
2023-06-30T16:08:59.756Z,99610.94
2023-06-30T16:12:02.688Z,99606.31
2023-06-30T16:15:08.859Z,99604.75
2023-06-30T16:18:11.666Z,99613.75
2023-06-30T16:21:14.306Z,99611.59
2023-06-30T16:24:20.297Z,99604.50
2023-06-30T16:27:23.167Z,99605.97
2023-06-30T16:30:33.353Z,99596.16
2023-06-30T16:33:36.399Z,99597.19
2023-06-30T16:36:40.987Z,99591.94
2023-06-30T16:39:43.986Z,99597.41
2023-06-30T16:42:48.188Z,99589.75
2023-06-30T16:45:51.441Z,99576.00
2023-06-30T16:48:54.589Z,99581.09
2023-06-30T16:51:57.154Z,99571.63
2023-06-30T16:54:59.898Z,99583.16
2023-06-30T16:58:02.477Z,99573.16
2023-06-30T17:01:05.390Z,99577.09
2023-06-30T17:04:08.006Z,99582.47
2023-06-30T17:07:11.564Z,99580.03
2023-06-30T17:10:14.763Z,99577.19
2023-06-30T17:13:17.589Z,99585.56
2023-06-30T17:16:22.350Z,99585.84
2023-06-30T17:19:28.534Z,99596.72
2023-06-30T17:22:31.219Z,99578.94
2023-06-30T17:25:34.143Z,99580.34
2023-06-30T17:28:36.875Z,99580.22
2023-06-30T17:31:39.661Z,99588.13
2023-06-30T17:34:42.280Z,99585.06
2023-06-30T17:37:45.246Z,99590.91
2023-06-30T17:40:47.944Z,99587.44
2023-06-30T17:43:51.260Z,99586.50
2023-06-30T17:46:54.068Z,99589.09
2023-06-30T17:49:57.134Z,99588.28
2023-06-30T17:52:59.939Z,99587.69
2023-06-30T17:56:02.986Z,99588.44
2023-06-30T17:59:05.669Z,99585.22
2023-06-30T18:02:08.767Z,99583.53
2023-06-30T18:05:11.910Z,99578.62
2023-06-30T18:08:14.688Z,99580.28
2023-06-30T18:11:17.683Z,99574.78
2023-06-30T18:14:20.412Z,99577.13
2023-06-30T18:17:23.415Z,99577.81
2023-06-30T18:20:27.030Z,99566.56
2023-06-30T18:23:29.900Z,99574.50
2023-06-30T18:26:32.478Z,99576.25
2023-06-30T18:29:35.398Z,99578.53
2023-06-30T18:32:37.985Z,99584.00
2023-06-30T18:35:40.853Z,99586.28
2023-06-30T18:38:43.312Z,99586.91
2023-06-30T18:41:46.187Z,99584.81
2023-06-30T18:44:49.306Z,99584.59
2023-06-30T18:47:52.260Z,99585.47
2023-06-30T18:50:54.967Z,99596.34
2023-06-30T18:53:57.811Z,99594.50
2023-06-30T18:57:00.488Z,99603.97
2023-06-30T19:00:04.508Z,99605.63
2023-06-30T19:03:12.958Z,99603.75
2023-06-30T19:06:16.303Z,99611.38
2023-06-30T19:09:19.035Z,99608.66
2023-06-30T19:12:21.867Z,99614.91
2023-06-30T19:15:24.423Z,99617.31
2023-06-30T19:18:27.265Z,99620.84
2023-06-30T19:21:29.909Z,99626.00
2023-06-30T19:24:33.219Z,99626.25
2023-06-30T19:27:35.784Z,99628.97
2023-06-30T19:30:38.593Z,99629.25
2023-06-30T19:33:41.530Z,99619.50
2023-06-30T19:36:44.560Z,99629.53
2023-06-30T19:39:47.223Z,99614.09
2023-06-30T19:42:50.281Z,99622.22
2023-06-30T19:45:52.863Z,99615.97
2023-06-30T19:48:55.672Z,99629.78
2023-06-30T19:51:58.828Z,99625.97
2023-06-30T19:55:01.607Z,99623.78
2023-06-30T19:58:04.252Z,99621.06
2023-06-30T20:01:07.081Z,99622.97
2023-06-30T20:04:13.027Z,99624.59
2023-06-30T20:07:15.616Z,99634.56
2023-06-30T20:10:18.903Z,99630.53
2023-06-30T20:13:21.394Z,99631.31
2023-06-30T20:16:24.121Z,99628.06
2023-06-30T20:19:26.881Z,99632.34
2023-06-30T20:22:31.468Z,99636.94
2023-06-30T20:25:34.205Z,99638.53
2023-06-30T20:28:37.228Z,99641.44
2023-06-30T20:31:39.812Z,99631.69
2023-06-30T20:34:44.066Z,99632.75
2023-06-30T20:37:47.490Z,99636.22
2023-06-30T20:40:51.128Z,99638.91
2023-06-30T20:43:54.134Z,99644.00
2023-06-30T20:46:57.261Z,99632.63
2023-06-30T20:49:59.897Z,99637.19
2023-06-30T20:53:03.686Z,99633.66
2023-06-30T20:56:06.484Z,99636.31
2023-06-30T20:59:09.422Z,99642.50
2023-06-30T21:02:11.968Z,99640.38
2023-06-30T21:05:14.975Z,99642.47
2023-06-30T21:08:17.562Z,99647.31
2023-06-30T21:11:20.956Z,99646.12
2023-06-30T21:14:24.708Z,99650.37
2023-06-30T21:17:27.614Z,99650.03
2023-06-30T21:20:30.211Z,99645.94
2023-06-30T21:23:33.531Z,99645.84
2023-06-30T21:26:36.177Z,99642.56
2023-06-30T21:29:39.528Z,99636.28
2023-06-30T21:32:42.163Z,99638.94
2023-06-30T21:35:45.014Z,99632.16
2023-06-30T21:38:47.622Z,99641.53
2023-06-30T21:41:50.503Z,99628.53
2023-06-30T21:44:53.154Z,99632.75
2023-06-30T21:47:55.968Z,99621.66
2023-06-30T21:50:58.515Z,99626.47
2023-06-30T21:54:05.440Z,99631.09
2023-06-30T21:57:07.870Z,99625.63
2023-06-30T22:00:11.065Z,99624.72
2023-06-30T22:03:13.608Z,99625.16
2023-06-30T22:06:16.560Z,99623.47
2023-06-30T22:09:18.970Z,99623.41
2023-06-30T22:12:21.728Z,99634.13
2023-06-30T22:15:25.257Z,99635.37
2023-06-30T22:18:28.041Z,99628.31
2023-06-30T22:21:30.626Z,99627.28
2023-06-30T22:24:33.463Z,99632.94
2023-06-30T22:27:36.002Z,99631.44
2023-06-30T22:30:38.789Z,99628.34
2023-06-30T22:33:41.278Z,99634.69
2023-06-30T22:36:44.712Z,99629.75
2023-06-30T22:39:48.274Z,99626.16
2023-06-30T22:42:51.041Z,99625.28
2023-06-30T22:45:53.528Z,99619.81
2023-06-30T22:48:56.348Z,99620.31
2023-06-30T22:51:58.931Z,99620.00
2023-06-30T22:55:02.188Z,99617.31
2023-06-30T22:58:04.768Z,99611.50
2023-06-30T23:01:08.542Z,99616.81
2023-06-30T23:04:11.887Z,99611.03
2023-06-30T23:07:14.942Z,99618.47
2023-06-30T23:10:17.604Z,99612.44
2023-06-30T23:13:20.367Z,99618.50
2023-06-30T23:16:23.765Z,99613.25
2023-06-30T23:19:27.668Z,99612.37
2023-06-30T23:22:30.876Z,99607.72
2023-06-30T23:25:35.112Z,99613.03
2023-06-30T23:28:38.804Z,99609.97
2023-06-30T23:31:42.049Z,99612.56
2023-06-30T23:34:44.784Z,99614.94
2023-06-30T23:37:47.596Z,99606.56
2023-06-30T23:40:50.088Z,99605.31
2023-06-30T23:43:54.037Z,99607.91
2023-06-30T23:46:56.698Z,99610.75
2023-06-30T23:49:59.651Z,99617.41
2023-06-30T23:53:02.135Z,99620.59
2023-06-30T23:56:05.097Z,99606.84
2023-06-30T23:59:07.918Z,99614.91
